Lanesville, Illinois
Current Conditions -  °F | °C
As of 5:52 PM on Sunday 21 Dec 2014 (Local Time) from KSPI Reporting Station
Broken Clouds Broken Clouds  
Wind Chill: 30°   Ceiling: 4500
Heat Index: 38°   Visibility: 10mi
Dew Point: 31°   Wind: 12mph
Humidity: 76%   Direction: 130°SE
Pressure: 30.03"   Gusts: NA
Location:  39.8448°N, 89.3474°W
Report Text: KSPI 212352Z 13010KT 10SM BKN045 03/M01 A3003 RMK AO2 SLP171 T00331006 10044 20028 56010
Loading
Personal Weather Stations






























Interactive Weather Map New forecast layout! Learn more

10-Day Weather Forecast

Advertisements
Track Severe Weather on mobile